Time;durP1;ratioP1;P1;durP2;ratioP2;P2;SDS_P1;SDS_P2;PMS_P1;PMS_P2;Temp;Humidity;BMP_temperature;BMP_pressure;BME280_temperature;BME280_humidity;BME280_pressure;Samples;Min_cycle;Max_cycle;Signal;HPM_P1;HPM_P2
2021/06/22 00:00:15;;;;;;;8.90;8.30;;;;;;;;;;5043714;28;20507;-73
2021/06/22 00:02:42;;;;;;;8.53;7.80;;;;;;;;;;5047364;28;20543;-75
2021/06/22 00:05:10;;;;;;;8.63;8.03;;;;;;;;;;5046459;28;20542;-75
2021/06/22 00:07:37;;;;;;;8.40;7.70;;;;;;;;;;5048681;28;20475;-74
2021/06/22 00:10:04;;;;;;;9.50;8.70;;;;;;;;;;5044471;28;20467;-75
2021/06/22 00:12:33;;;;;;;9.10;8.20;;;;;;;;;;5046120;28;20455;-73
2021/06/22 00:15:00;;;;;;;8.43;7.77;;;;;;;;;;5044189;28;20525;-73
2021/06/22 00:17:27;;;;;;;8.00;7.40;;;;;;;;;;5046773;28;21036;-72
2021/06/22 00:19:54;;;;;;;11.70;7.53;;;;;;;;;;5043294;28;20541;-72
2021/06/22 00:22:21;;;;;;;8.77;8.07;;;;;;;;;;5049914;28;20460;-73
2021/06/22 00:24:48;;;;;;;10.33;9.27;;;;;;;;;;5051311;28;20455;-72
2021/06/22 00:27:16;;;;;;;9.97;9.17;;;;;;;;;;5049077;28;20561;-75
2021/06/22 00:29:48;;;;;;;9.43;8.70;;;;;;;;;;5050630;28;20452;-73
2021/06/22 00:32:15;;;;;;;9.63;8.73;;;;;;;;;;5048109;28;20475;-72
2021/06/22 00:34:44;;;;;;;10.67;9.87;;;;;;;;;;5050416;28;20456;-75
2021/06/22 00:37:11;;;;;;;11.17;10.37;;;;;;;;;;5047877;28;20437;-73
2021/06/22 00:39:38;;;;;;;11.90;11.00;;;;;;;;;;5043936;28;20461;-73
2021/06/22 00:42:05;;;;;;;13.40;12.33;;;;;;;;;;5050089;28;20995;-73
2021/06/22 00:44:32;;;;;;;13.43;12.37;;;;;;;;;;5050156;28;20475;-74
2021/06/22 00:47:00;;;;;;;13.77;12.60;;;;;;;;;;5047521;28;21021;-74
2021/06/22 00:49:28;;;;;;;13.57;12.67;;;;;;;;;;5050182;28;20450;-73
2021/06/22 00:51:55;;;;;;;14.93;13.67;;;;;;;;;;5047522;28;20537;-73
2021/06/22 00:54:22;;;;;;;14.53;13.43;;;;;;;;;;5051214;28;20742;-73
2021/06/22 00:56:49;;;;;;;16.13;14.93;;;;;;;;;;5048053;28;21041;-73
2021/06/22 00:59:16;;;;;;;14.80;13.70;;;;;;;;;;5053222;28;20922;-72
2021/06/22 01:01:43;;;;;;;15.60;14.20;;;;;;;;;;5047916;28;20551;-73
2021/06/22 01:04:12;;;;;;;18.03;16.50;;;;;;;;;;5051604;28;20482;-73
2021/06/22 01:06:39;;;;;;;17.27;16.00;;;;;;;;;;5046116;28;20943;-74
2021/06/22 01:09:07;;;;;;;17.70;16.10;;;;;;;;;;5047026;28;20868;-74
2021/06/22 01:11:34;;;;;;;17.33;16.10;;;;;;;;;;5050273;28;20447;-73
2021/06/22 01:14:01;;;;;;;18.40;16.80;;;;;;;;;;5046590;28;20732;-73
2021/06/22 01:16:29;;;;;;;22.13;17.87;;;;;;;;;;5049826;28;20548;-73
2021/06/22 01:19:00;;;;;;;17.77;16.40;;;;;;;;;;5045968;28;20547;-75
2021/06/22 01:21:29;;;;;;;18.70;17.20;;;;;;;;;;5061728;28;20445;-73
2021/06/22 01:23:56;;;;;;;19.53;18.13;;;;;;;;;;5047139;28;20461;-73
2021/06/22 01:26:23;;;;;;;19.47;17.97;;;;;;;;;;5049685;28;20469;-74
2021/06/22 01:28:50;;;;;;;21.00;19.30;;;;;;;;;;5046148;28;20780;-74
2021/06/22 01:31:19;;;;;;;19.60;17.93;;;;;;;;;;5049714;28;20459;-73
2021/06/22 01:33:47;;;;;;;20.27;18.67;;;;;;;;;;5047290;28;20461;-74
2021/06/22 01:36:14;;;;;;;21.63;19.83;;;;;;;;;;5048105;28;20495;-74
2021/06/22 01:38:43;;;;;;;22.73;21.03;;;;;;;;;;5050414;28;20951;-74
2021/06/22 01:41:10;;;;;;;24.37;22.27;;;;;;;;;;5048667;28;20449;-74
2021/06/22 01:43:37;;;;;;;23.70;21.87;;;;;;;;;;5042598;28;20548;-73
2021/06/22 01:46:04;;;;;;;23.63;21.37;;;;;;;;;;5049744;28;20445;-73
2021/06/22 01:48:31;;;;;;;25.20;23.33;;;;;;;;;;5045594;28;20901;-73
2021/06/22 01:50:58;;;;;;;24.97;22.97;;;;;;;;;;5049747;28;20463;-74
2021/06/22 01:53:26;;;;;;;22.80;21.10;;;;;;;;;;5047123;28;20450;-73
2021/06/22 01:55:54;;;;;;;21.50;19.80;;;;;;;;;;5048614;28;20454;-75
2021/06/22 01:58:22;;;;;;;24.07;22.10;;;;;;;;;;5049226;28;20437;-75
2021/06/22 02:00:50;;;;;;;24.10;22.20;;;;;;;;;;5045794;28;20551;-74
2021/06/22 02:03:19;;;;;;;21.53;19.83;;;;;;;;;;5053822;28;20455;-75
2021/06/22 02:05:47;;;;;;;25.67;23.67;;;;;;;;;;5049312;28;20952;-74
2021/06/22 02:08:14;;;;;;;23.50;21.50;;;;;;;;;;5048699;28;20477;-74
2021/06/22 02:10:41;;;;;;;25.90;23.90;;;;;;;;;;5044757;28;21118;-74
2021/06/22 02:13:10;;;;;;;27.00;24.70;;;;;;;;;;5046564;28;20444;-74
2021/06/22 02:15:37;;;;;;;26.77;24.67;;;;;;;;;;5046040;28;20510;-74
2021/06/22 02:18:05;;;;;;;26.17;23.93;;;;;;;;;;5049392;28;20531;-74
2021/06/22 02:20:34;;;;;;;25.33;23.33;;;;;;;;;;5045409;28;20448;-73
2021/06/22 02:23:01;;;;;;;24.50;22.50;;;;;;;;;;5048627;28;20479;-74
2021/06/22 02:25:28;;;;;;;26.53;24.50;;;;;;;;;;5047905;28;20466;-74
2021/06/22 02:28:02;;;;;;;28.43;25.90;;;;;;;;;;5045949;28;20461;-74
2021/06/22 02:30:30;;;;;;;29.10;26.60;;;;;;;;;;5044290;28;20463;-74
2021/06/22 02:32:57;;;;;;;27.93;25.53;;;;;;;;;;5048538;28;20449;-74
2021/06/22 02:35:24;;;;;;;27.80;25.60;;;;;;;;;;5042702;28;20442;-75
2021/06/22 02:37:52;;;;;;;26.67;24.23;;;;;;;;;;5048111;28;20708;-74
2021/06/22 02:40:20;;;;;;;26.73;24.50;;;;;;;;;;5045267;28;20961;-74
2021/06/22 02:42:47;;;;;;;28.23;25.57;;;;;;;;;;5047758;28;20452;-74
2021/06/22 02:45:15;;;;;;;27.10;25.00;;;;;;;;;;5048158;28;20573;-74
2021/06/22 02:47:43;;;;;;;28.30;25.97;;;;;;;;;;5044943;28;21009;-74
2021/06/22 02:50:11;;;;;;;28.33;26.07;;;;;;;;;;5046642;28;20485;-74
2021/06/22 02:52:38;;;;;;;29.63;27.40;;;;;;;;;;5045229;28;20464;-74
2021/06/22 02:55:06;;;;;;;28.30;25.90;;;;;;;;;;5047948;28;20562;-74
2021/06/22 02:57:33;;;;;;;25.90;23.80;;;;;;;;;;5041250;28;20565;-73
2021/06/22 03:00:00;;;;;;;26.83;24.53;;;;;;;;;;5047156;28;20454;-73
2021/06/22 03:02:27;;;;;;;27.63;25.30;;;;;;;;;;5045581;28;20461;-73
2021/06/22 03:04:56;;;;;;;29.23;26.70;;;;;;;;;;5048239;28;20451;-73
2021/06/22 03:07:23;;;;;;;27.37;24.77;;;;;;;;;;5041370;28;20548;-75
2021/06/22 03:09:50;;;;;;;28.10;25.47;;;;;;;;;;5047055;28;20488;-73
2021/06/22 03:12:17;;;;;;;27.13;24.93;;;;;;;;;;5045063;28;20503;-74
2021/06/22 03:14:44;;;;;;;24.50;22.50;;;;;;;;;;5047475;28;20483;-74
2021/06/22 03:17:11;;;;;;;27.23;25.23;;;;;;;;;;5046499;28;20560;-74
2021/06/22 03:19:38;;;;;;;26.13;24.20;;;;;;;;;;5049447;28;20457;-74
2021/06/22 03:22:07;;;;;;;26.23;24.03;;;;;;;;;;5047837;28;20443;-74
2021/06/22 03:24:34;;;;;;;26.83;24.77;;;;;;;;;;5046239;28;20948;-74
2021/06/22 03:27:01;;;;;;;29.13;26.43;;;;;;;;;;5046358;28;20845;-73
2021/06/22 03:29:28;;;;;;;27.57;25.20;;;;;;;;;;5045852;28;20815;-72
2021/06/22 03:31:55;;;;;;;26.77;24.87;;;;;;;;;;5048046;28;20483;-73
2021/06/22 03:34:22;;;;;;;28.40;25.87;;;;;;;;;;5047944;28;20546;-73
2021/06/22 03:36:50;;;;;;;29.13;26.90;;;;;;;;;;5048732;28;21005;-72
2021/06/22 03:39:18;;;;;;;28.43;26.13;;;;;;;;;;5045003;28;20449;-73
2021/06/22 03:41:45;;;;;;;28.17;26.07;;;;;;;;;;5046464;28;20503;-73
2021/06/22 03:44:12;;;;;;;27.40;25.27;;;;;;;;;;5044321;28;20543;-73
2021/06/22 03:46:42;;;;;;;27.10;24.90;;;;;;;;;;5047947;28;20473;-73
2021/06/22 03:49:10;;;;;;;27.10;24.90;;;;;;;;;;5043965;28;20859;-72
2021/06/22 03:51:37;;;;;;;26.53;24.33;;;;;;;;;;5047576;28;20455;-73
2021/06/22 03:54:04;;;;;;;24.60;22.60;;;;;;;;;;5042589;28;20556;-74
2021/06/22 03:56:33;;;;;;;24.77;22.77;;;;;;;;;;5047909;28;20551;-73
2021/06/22 03:59:00;;;;;;;22.77;21.10;;;;;;;;;;5047662;28;20460;-73
2021/06/22 04:01:27;;;;;;;21.50;19.77;;;;;;;;;;5051533;28;20446;-73
2021/06/22 04:03:54;;;;;;;23.07;21.30;;;;;;;;;;5047892;28;20934;-73
2021/06/22 04:06:21;;;;;;;20.53;19.03;;;;;;;;;;5051596;28;20444;-74
2021/06/22 04:08:48;;;;;;;19.63;18.07;;;;;;;;;;5047766;28;21009;-74
2021/06/22 04:11:15;;;;;;;17.77;16.43;;;;;;;;;;5050921;28;20456;-75
2021/06/22 04:13:44;;;;;;;17.27;15.87;;;;;;;;;;5048980;28;20506;-74
2021/06/22 04:16:11;;;;;;;17.93;16.30;;;;;;;;;;5048194;28;20492;-73
2021/06/22 04:18:38;;;;;;;17.73;16.50;;;;;;;;;;5050010;28;20451;-74
2021/06/22 04:21:06;;;;;;;20.03;18.33;;;;;;;;;;5047513;28;20484;-74
2021/06/22 04:23:33;;;;;;;17.97;16.67;;;;;;;;;;5050651;28;21020;-74
2021/06/22 04:26:01;;;;;;;16.80;15.60;;;;;;;;;;5048787;28;20449;-74
2021/06/22 04:28:28;;;;;;;13.70;12.67;;;;;;;;;;5050619;28;20469;-73
2021/06/22 04:30:56;;;;;;;12.60;11.70;;;;;;;;;;5047871;28;20457;-74
2021/06/22 04:33:24;;;;;;;13.33;12.30;;;;;;;;;;5050654;28;20978;-74
2021/06/22 04:35:51;;;;;;;12.90;11.77;;;;;;;;;;5048635;28;20442;-76
2021/06/22 04:38:18;;;;;;;14.20;13.13;;;;;;;;;;5050552;28;20453;-74
2021/06/22 04:40:45;;;;;;;12.40;11.50;;;;;;;;;;5043254;28;20505;-74
2021/06/22 04:43:12;;;;;;;12.33;11.53;;;;;;;;;;5051053;28;20816;-74
2021/06/22 04:45:40;;;;;;;13.17;12.10;;;;;;;;;;5047068;28;20752;-74
2021/06/22 04:48:09;;;;;;;10.83;10.13;;;;;;;;;;5050368;28;20552;-74
2021/06/22 04:50:36;;;;;;;11.40;10.50;;;;;;;;;;5041183;28;20464;-73
2021/06/22 04:53:03;;;;;;;12.30;11.40;;;;;;;;;;5049598;28;20539;-75
2021/06/22 04:55:30;;;;;;;12.57;11.43;;;;;;;;;;5048065;28;20447;-75
2021/06/22 04:57:58;;;;;;;13.10;11.90;;;;;;;;;;5049977;28;20455;-73
2021/06/22 05:00:26;;;;;;;12.50;11.50;;;;;;;;;;5049771;28;20522;-75
2021/06/22 05:02:53;;;;;;;12.20;11.30;;;;;;;;;;5047338;28;20544;-74
2021/06/22 05:05:22;;;;;;;12.53;11.63;;;;;;;;;;5050447;28;20582;-73
2021/06/22 05:07:49;;;;;;;11.87;10.97;;;;;;;;;;5047018;28;20468;-74
2021/06/22 05:10:16;;;;;;;11.73;10.83;;;;;;;;;;5049185;28;20970;-74
2021/06/22 05:12:45;;;;;;;11.20;10.27;;;;;;;;;;5047364;28;20479;-74
2021/06/22 05:15:13;;;;;;;11.53;10.63;;;;;;;;;;5048621;28;20542;-74
2021/06/22 05:17:40;;;;;;;11.03;10.23;;;;;;;;;;5043580;28;20481;-74
2021/06/22 05:20:08;;;;;;;11.57;10.60;;;;;;;;;;5048998;28;20494;-75
2021/06/22 05:22:37;;;;;;;11.40;10.50;;;;;;;;;;5047315;28;20532;-74
2021/06/22 05:25:05;;;;;;;11.67;10.60;;;;;;;;;;5051704;28;20458;-75
2021/06/22 05:27:32;;;;;;;11.83;11.03;;;;;;;;;;5047245;28;20544;-74
2021/06/22 05:29:59;;;;;;;12.27;11.17;;;;;;;;;;5050798;28;20461;-74
2021/06/22 05:32:26;;;;;;;12.30;11.40;;;;;;;;;;5057191;28;20474;-74
2021/06/22 05:34:53;;;;;;;12.40;11.20;;;;;;;;;;5052802;28;20936;-74
2021/06/22 05:37:20;;;;;;;12.47;11.30;;;;;;;;;;5050223;28;20459;-75
2021/06/22 05:39:49;;;;;;;13.20;12.20;;;;;;;;;;5063166;28;20846;-75
2021/06/22 05:42:16;;;;;;;12.83;11.73;;;;;;;;;;5056745;28;20445;-75
2021/06/22 05:44:43;;;;;;;12.20;11.07;;;;;;;;;;5055488;28;21054;-75
2021/06/22 05:47:10;;;;;;;13.20;12.20;;;;;;;;;;5050607;28;20495;-74
2021/06/22 05:49:38;;;;;;;13.20;12.10;;;;;;;;;;5046692;28;20488;-74
2021/06/22 05:52:05;;;;;;;13.33;12.30;;;;;;;;;;5049914;28;20531;-74
2021/06/22 05:54:32;;;;;;;13.30;12.40;;;;;;;;;;5048231;28;20523;-74
2021/06/22 05:57:00;;;;;;;14.47;13.37;;;;;;;;;;5048137;28;21002;-73
2021/06/22 05:59:28;;;;;;;14.20;12.80;;;;;;;;;;5046996;28;20468;-74
2021/06/22 06:01:55;;;;;;;16.00;14.53;;;;;;;;;;5055351;28;20970;-74
2021/06/22 06:04:22;;;;;;;15.10;13.80;;;;;;;;;;5048627;28;20543;-74
2021/06/22 06:06:49;;;;;;;16.70;15.20;;;;;;;;;;5050186;28;20535;-75
2021/06/22 06:09:16;;;;;;;15.73;14.43;;;;;;;;;;5045771;28;20600;-73
2021/06/22 06:11:43;;;;;;;16.30;14.90;;;;;;;;;;5048827;28;20809;-74
2021/06/22 06:14:12;;;;;;;16.80;15.20;;;;;;;;;;5049087;28;21029;-74
2021/06/22 06:16:39;;;;;;;17.03;15.50;;;;;;;;;;5049150;28;20558;-73
2021/06/22 06:19:06;;;;;;;17.60;16.23;;;;;;;;;;5044560;28;20493;-73
2021/06/22 06:21:34;;;;;;;16.40;14.93;;;;;;;;;;5049097;28;20823;-74
2021/06/22 06:24:01;;;;;;;18.20;16.47;;;;;;;;;;5048980;28;20835;-74
2021/06/22 06:26:32;;;;;;;16.50;15.00;;;;;;;;;;5049314;28;20452;-74
2021/06/22 06:29:06;;;;;;;15.90;14.50;;;;;;;;;;5059022;28;20491;-74
2021/06/22 06:31:34;;;;;;;15.87;14.63;;;;;;;;;;5047531;28;20479;-74
2021/06/22 06:34:02;;;;;;;18.00;16.50;;;;;;;;;;5050498;28;20781;-74
2021/06/22 06:36:29;;;;;;;18.07;16.53;;;;;;;;;;5047819;28;20518;-74
2021/06/22 06:38:56;;;;;;;18.97;17.17;;;;;;;;;;5047740;28;20449;-74
2021/06/22 06:41:23;;;;;;;18.67;17.03;;;;;;;;;;5045944;28;20483;-74
2021/06/22 06:43:50;;;;;;;19.30;17.50;;;;;;;;;;5047503;28;20494;-73
2021/06/22 06:46:17;;;;;;;20.80;19.00;;;;;;;;;;5046457;28;20564;-74
2021/06/22 06:48:46;;;;;;;20.77;19.03;;;;;;;;;;5047577;28;20468;-74
2021/06/22 06:51:14;;;;;;;19.97;18.43;;;;;;;;;;5042088;28;20449;-75
2021/06/22 06:53:41;;;;;;;20.80;18.80;;;;;;;;;;5046689;28;20525;-75
2021/06/22 06:56:08;;;;;;;20.43;18.73;;;;;;;;;;5046508;28;20725;-74
2021/06/22 06:58:35;;;;;;;21.90;19.80;;;;;;;;;;5049068;28;20484;-73
2021/06/22 07:01:02;;;;;;;22.77;20.97;;;;;;;;;;5045283;28;20807;-74
2021/06/22 07:03:29;;;;;;;24.03;22.00;;;;;;;;;;5048032;28;20448;-74
2021/06/22 07:05:58;;;;;;;23.70;21.77;;;;;;;;;;5048480;28;20485;-74
2021/06/22 07:08:25;;;;;;;22.90;21.00;;;;;;;;;;5048113;28;20561;-74
2021/06/22 07:10:52;;;;;;;23.53;21.67;;;;;;;;;;5048474;28;20562;-74
2021/06/22 07:13:19;;;;;;;24.50;22.30;;;;;;;;;;5052588;28;20451;-74
2021/06/22 07:15:47;;;;;;;23.70;21.30;;;;;;;;;;5051088;28;20552;-74
2021/06/22 07:18:14;;;;;;;23.20;21.20;;;;;;;;;;5044441;28;20541;-74
2021/06/22 07:20:41;;;;;;;22.20;20.10;;;;;;;;;;5046322;28;20474;-74
2021/06/22 07:23:10;;;;;;;24.13;21.73;;;;;;;;;;5046049;28;20453;-73
2021/06/22 07:25:37;;;;;;;20.70;18.60;;;;;;;;;;5044982;28;20453;-75
2021/06/22 07:28:04;;;;;;;22.00;20.20;;;;;;;;;;5044723;28;20527;-74
2021/06/22 07:30:31;;;;;;;24.13;22.00;;;;;;;;;;5048112;28;20546;-74
2021/06/22 07:32:59;;;;;;;22.70;20.93;;;;;;;;;;5045179;28;21018;-74
2021/06/22 07:35:26;;;;;;;22.93;20.40;;;;;;;;;;5045919;28;20979;-74
2021/06/22 07:37:53;;;;;;;30.30;24.90;;;;;;;;;;5045818;28;20939;-74
2021/06/22 07:40:22;;;;;;;24.63;22.20;;;;;;;;;;5048706;28;20457;-73
2021/06/22 07:42:50;;;;;;;28.40;26.00;;;;;;;;;;5044775;28;20481;-73
2021/06/22 07:45:18;;;;;;;27.40;25.00;;;;;;;;;;5048002;28;20555;-75
2021/06/22 07:47:45;;;;;;;25.93;23.73;;;;;;;;;;5043583;28;20469;-74
2021/06/22 07:50:12;;;;;;;27.10;24.80;;;;;;;;;;5049035;28;21045;-74
2021/06/22 07:52:39;;;;;;;32.43;27.07;;;;;;;;;;5047223;28;20917;-74
2021/06/22 07:55:13;;;;;;;32.37;27.33;;;;;;;;;;5047760;28;20505;-75
2021/06/22 07:57:41;;;;;;;29.27;26.63;;;;;;;;;;5044454;28;20452;-75
2021/06/22 08:00:16;;;;;;;25.97;23.77;;;;;;;;;;5047114;28;20487;-73
2021/06/22 08:02:43;;;;;;;25.37;23.07;;;;;;;;;;5045929;28;21200;-74
2021/06/22 08:05:10;;;;;;;22.83;20.83;;;;;;;;;;5049085;28;20507;-74
2021/06/22 08:07:38;;;;;;;23.63;21.73;;;;;;;;;;5047831;28;20925;-74
2021/06/22 08:10:05;;;;;;;24.13;22.10;;;;;;;;;;5043552;28;20479;-74
2021/06/22 08:12:32;;;;;;;23.27;21.47;;;;;;;;;;5047829;28;20456;-75
2021/06/22 08:15:01;;;;;;;21.93;20.30;;;;;;;;;;5044641;28;20456;-75
2021/06/22 08:17:28;;;;;;;22.30;20.40;;;;;;;;;;5051538;28;20475;-74
2021/06/22 08:19:56;;;;;;;21.27;19.63;;;;;;;;;;5047180;28;20533;-74
2021/06/22 08:22:23;;;;;;;20.67;18.83;;;;;;;;;;5052030;28;20784;-74
2021/06/22 08:24:50;;;;;;;22.57;20.30;;;;;;;;;;5046310;28;20558;-74
2021/06/22 08:27:18;;;;;;;17.00;15.70;;;;;;;;;;5048970;28;20545;-74
2021/06/22 08:29:45;;;;;;;24.50;17.20;;;;;;;;;;5044883;28;20473;-75
2021/06/22 08:32:14;;;;;;;17.00;15.60;;;;;;;;;;5048618;28;20956;-76
2021/06/22 08:34:41;;;;;;;16.10;14.90;;;;;;;;;;5042255;28;20550;-73
2021/06/22 08:37:08;;;;;;;15.17;13.80;;;;;;;;;;5048423;28;20456;-76
2021/06/22 08:39:36;;;;;;;15.37;14.10;;;;;;;;;;5046775;28;20449;-73
2021/06/22 08:42:06;;;;;;;20.47;13.87;;;;;;;;;;5046407;28;20467;-74
2021/06/22 08:44:34;;;;;;;13.57;12.40;;;;;;;;;;5045584;28;21018;-74
2021/06/22 08:47:01;;;;;;;13.13;12.03;;;;;;;;;;5050857;28;20480;-74
2021/06/22 08:49:31;;;;;;;13.73;12.73;;;;;;;;;;5050974;28;20472;-76
2021/06/22 08:51:58;;;;;;;14.27;13.07;;;;;;;;;;5050199;28;20444;-74
2021/06/22 08:54:25;;;;;;;13.50;12.50;;;;;;;;;;5049101;28;20524;-74
2021/06/22 08:56:54;;;;;;;13.00;11.87;;;;;;;;;;5049276;28;20510;-75
2021/06/22 08:59:22;;;;;;;13.10;12.00;;;;;;;;;;5051073;28;20453;-73
2021/06/22 09:01:49;;;;;;;13.07;12.00;;;;;;;;;;5048738;28;20922;-74
2021/06/22 09:04:16;;;;;;;13.07;11.90;;;;;;;;;;5052362;28;20446;-74
2021/06/22 09:06:45;;;;;;;11.40;10.60;;;;;;;;;;5054831;28;20458;-75
2021/06/22 09:09:12;;;;;;;12.23;11.27;;;;;;;;;;5050363;28;20563;-75
2021/06/22 09:11:40;;;;;;;12.33;11.43;;;;;;;;;;5049393;28;20458;-75
2021/06/22 09:14:09;;;;;;;13.03;12.00;;;;;;;;;;5056107;28;20521;-74
2021/06/22 09:16:38;;;;;;;13.17;12.23;;;;;;;;;;5059503;28;20494;-75
2021/06/22 09:19:05;;;;;;;12.47;11.57;;;;;;;;;;5058103;28;20439;-73
2021/06/22 09:21:40;;;;;;;12.53;11.50;;;;;;;;;;5057402;28;20478;-74
2021/06/22 09:24:15;;;;;;;12.10;10.90;;;;;;;;;;5055028;28;20465;-74
2021/06/22 09:26:45;;;;;;;11.17;10.37;;;;;;;;;;5053032;28;20460;-75
2021/06/22 09:29:13;;;;;;;11.17;10.27;;;;;;;;;;5049931;28;21380;-75
2021/06/22 09:31:48;;;;;;;10.63;9.70;;;;;;;;;;5045715;28;20461;-74
2021/06/22 09:34:18;;;;;;;10.70;9.93;;;;;;;;;;5050700;28;20442;-75
2021/06/22 09:36:50;;;;;;;11.13;10.13;;;;;;;;;;5050890;28;20869;-75
2021/06/22 09:39:18;;;;;;;12.10;11.20;;;;;;;;;;5057368;28;20871;-74
2021/06/22 09:41:46;;;;;;;10.20;9.33;;;;;;;;;;5049013;28;20825;-75
2021/06/22 09:44:14;;;;;;;10.40;9.60;;;;;;;;;;5052206;28;21068;-75
2021/06/22 09:46:42;;;;;;;10.10;9.20;;;;;;;;;;5052090;28;21222;-75
2021/06/22 09:49:10;;;;;;;9.97;9.07;;;;;;;;;;5054216;28;20462;-75
2021/06/22 09:51:39;;;;;;;10.50;9.70;;;;;;;;;;5049763;28;20475;-75
2021/06/22 09:54:17;;;;;;;10.80;9.00;;;;;;;;;;5047529;28;20563;-75
2021/06/22 09:56:59;;;;;;;10.03;9.13;;;;;;;;;;5049474;28;20582;-75
2021/06/22 09:59:27;;;;;;;10.47;9.27;;;;;;;;;;5051777;28;20462;-74
2021/06/22 10:02:00;;;;;;;10.13;9.33;;;;;;;;;;5060020;28;20574;-74
2021/06/22 10:04:28;;;;;;;9.93;9.13;;;;;;;;;;5050259;28;20457;-74
2021/06/22 10:06:57;;;;;;;9.27;8.57;;;;;;;;;;5051592;28;20451;-74
2021/06/22 10:09:25;;;;;;;9.90;9.20;;;;;;;;;;5053347;28;21077;-75
2021/06/22 10:12:01;;;;;;;11.90;9.93;;;;;;;;;;5052999;28;21031;-75
2021/06/22 10:14:29;;;;;;;11.87;8.33;;;;;;;;;;5047093;28;20449;-75
2021/06/22 10:16:57;;;;;;;10.30;9.37;;;;;;;;;;5049989;28;20614;-75
2021/06/22 10:19:24;;;;;;;9.73;9.03;;;;;;;;;;5046643;28;20677;-74
2021/06/22 10:21:52;;;;;;;8.60;7.90;;;;;;;;;;5049869;28;20458;-74
2021/06/22 10:24:19;;;;;;;9.17;8.27;;;;;;;;;;5046714;28;20538;-74
2021/06/22 10:26:47;;;;;;;9.07;8.37;;;;;;;;;;5052914;28;20471;-75
2021/06/22 10:29:19;;;;;;;8.30;7.60;;;28.40;52.80;;;;;;5055146;28;20455;-75
2021/06/22 10:31:48;;;;;;;8.70;8.10;;;26.10;74.90;;;;;;5055353;28;20722;-75
2021/06/22 10:34:15;;;;;;;8.80;8.17;;;;;;;;;;5048529;28;20962;-75
2021/06/22 10:36:47;;;;;;;8.83;8.23;;;;;;;;;;5051404;28;20537;-74
2021/06/22 10:39:16;;;;;;;8.73;8.00;;;;;;;;;;5047567;28;20460;-74
2021/06/22 10:41:45;;;;;;;8.10;7.47;;;;;;;;;;5050649;28;20466;-74
2021/06/22 10:44:27;;;;;;;7.73;7.23;;;;;;;;;;5054210;28;20516;-74
2021/06/22 10:47:09;;;;;;;7.20;6.70;;;;;;;;;;5051194;28;20460;-74
2021/06/22 10:49:56;;;;;;;7.10;6.67;;;;;;;;;;5046151;28;20502;-76
2021/06/22 10:52:38;;;;;;;7.70;7.20;;;;;;;;;;5050332;28;20697;-76
2021/06/22 10:55:06;;;;;;;7.13;6.63;;;;;;;;;;5045330;28;20450;-73
2021/06/22 10:57:48;;;;;;;7.57;7.00;;;;;;;;;;5052157;28;20441;-74
2021/06/22 11:00:15;;;;;;;7.70;7.10;;;;;;;;;;5047186;28;20493;-73
2021/06/22 11:03:01;;;;;;;8.30;7.70;;;;;;;;;;5048114;28;20871;-74
2021/06/22 11:05:30;;;;;;;8.20;7.60;;;;;;;;;;5044135;28;20485;-74
2021/06/22 11:08:16;;;;;;;7.30;6.70;;;;;;;;;;5050198;28;20488;-74
2021/06/22 11:11:04;;;;;;;8.10;7.50;;;;;;;;;;5047541;28;20477;-74
2021/06/22 11:13:34;;;;;;;7.77;7.17;;;;;;;;;;5048718;28;20453;-75
2021/06/22 11:16:02;;;;;;;7.43;6.93;;;;;;;;;;5045665;28;20481;-75
2021/06/22 11:18:49;;;;;;;6.87;6.27;;;;;;;;;;5048884;28;20545;-75
2021/06/22 11:21:18;;;;;;;8.30;7.50;;;26.00;72.90;;;;;;5044495;28;20526;-75
2021/06/22 11:23:57;;;;;;;7.17;6.70;;;25.80;69.70;;;;;;5050301;28;20439;-75
2021/06/22 11:26:25;;;;;;;8.23;7.50;;;26.20;68.80;;;;;;5045778;28;20625;-74
2021/06/22 11:28:58;;;;;;;7.27;6.77;;;;;;;;;;5047622;28;20457;-75
2021/06/22 11:31:36;;;;;;;8.47;7.40;;;;;;;;;;5043675;28;20894;-74
2021/06/22 11:34:07;;;;;;;7.63;7.13;;;;;;;;;;5048531;28;20546;-74
2021/06/22 11:36:36;;;;;;;8.17;7.37;;;;;;;;;;5045384;28;20457;-75
2021/06/22 11:39:08;;;;;;;8.27;7.40;;;;;;;;;;5050642;28;20548;-75
2021/06/22 11:41:35;;;;;;;7.13;6.53;;;;;;;;;;5044038;28;20445;-75
2021/06/22 11:44:20;;;;;;;12.83;7.03;;;;;;;;;;5050941;28;20945;-75
2021/06/22 11:46:49;;;;;;;6.83;6.10;;;;;;;;;;5037822;28;20765;-74
2021/06/22 11:49:18;;;;;;;11.83;7.00;;;;;;;;;;5049107;28;20446;-74
2021/06/22 11:52:05;;;;;;;7.00;6.50;;;;;;;;;;5049167;28;20890;-73
2021/06/22 11:54:51;;;;;;;6.67;6.07;;;;;;;;;;5049808;28;20450;-75
2021/06/22 11:57:19;;;;;;;7.30;6.70;;;;;;;;;;5036391;28;20462;-74
2021/06/22 11:59:46;;;;;;;6.83;6.43;;;;;;;;;;5048098;28;20454;-75
2021/06/22 12:02:15;;;;;;;6.10;5.70;;;;;;;;;;5042175;28;20488;-75
2021/06/22 12:04:42;;;;;;;6.13;5.77;;;;;;;;;;5048704;28;20478;-75
2021/06/22 12:07:10;;;;;;;6.03;5.53;;;;;;;;;;5047179;28;20446;-76
2021/06/22 12:09:40;;;;;;;5.80;5.40;;;;;;;;;;5046733;28;20502;-75
2021/06/22 12:12:08;;;;;;;6.10;5.63;;;;;;;;;;5047935;28;20454;-75
2021/06/22 12:14:35;;;;;;;6.17;5.77;;;;;;;;;;5046164;28;20890;-75
2021/06/22 12:17:13;;;;;;;5.63;5.20;;;;;;;;;;5048902;28;20557;-74
2021/06/22 12:19:42;;;;;;;5.50;5.00;;;;;;;;;;5048288;28;20445;-75
2021/06/22 12:22:11;;;;;;;8.23;5.67;;;;;;;;;;5051893;28;20536;-75
2021/06/22 12:24:39;;;;;;;6.37;5.13;;;;;;;;;;5048751;28;20953;-75
2021/06/22 12:27:07;;;;;;;5.63;5.20;;;26.10;69.70;;;;;;5052214;28;20465;-76
2021/06/22 12:29:34;;;;;;;4.77;4.40;;;26.20;66.50;;;;;;5048767;28;20820;-74
2021/06/22 12:32:02;;;;;;;4.67;4.27;;;26.60;65.20;;;;;;5051918;28;20497;-75
2021/06/22 12:34:32;;;;;;;5.27;4.77;;;26.30;64.70;;;;;;5049567;28;20503;-75
2021/06/22 12:37:01;;;;;;;4.57;4.27;;;26.30;65.00;;;;;;5052486;28;20454;-74
2021/06/22 12:39:37;;;;;;;5.63;5.10;;;26.30;65.30;;;;;;5048894;28;20524;-74
2021/06/22 12:42:06;;;;;;;5.40;4.10;;;26.50;65.30;;;;;;5051308;28;20976;-74
2021/06/22 12:44:34;;;;;;;5.67;4.50;;;26.30;64.60;;;;;;5053072;28;21256;-74
2021/06/22 12:47:04;;;;;;;4.23;3.93;;;26.60;64.00;;;;;;5052055;28;20506;-74
2021/06/22 12:49:33;;;;;;;6.90;4.07;;;27.10;62.80;;;;;;5048395;28;20538;-76
2021/06/22 12:52:03;;;;;;;5.27;4.73;;;27.00;63.40;;;;;;5051495;28;20467;-74
2021/06/22 12:54:32;;;;;;;7.37;4.50;;;27.00;63.80;;;;;;5051264;28;20463;-74
2021/06/22 12:57:00;;;;;;;8.93;4.80;;;;;;;;;;5058648;28;20452;-74
2021/06/22 12:59:28;;;;;;;5.20;4.80;;;;;;;;;;5056052;28;20550;-75
2021/06/22 13:02:04;;;;;;;5.93;4.83;;;26.60;65.30;;;;;;5057039;28;20445;-74
2021/06/22 13:04:39;;;;;;;5.17;4.73;;;;;;;;;;5051421;28;20492;-74
2021/06/22 13:07:11;;;;;;;7.40;4.23;;;;;;;;;;5054308;28;20451;-74
2021/06/22 13:09:39;;;;;;;8.40;5.50;;;;;;;;;;5051774;28;20483;-74
2021/06/22 13:12:13;;;;;;;10.43;4.40;;;;;;;;;;5049746;28;20570;-75
2021/06/22 13:14:42;;;;;;;4.73;4.40;;;26.50;64.60;;;;;;5050095;28;20462;-74
2021/06/22 13:17:12;;;;;;;4.90;4.50;;;26.60;65.10;;;;;;5047692;28;20836;-75
2021/06/22 13:19:42;;;;;;;4.80;4.37;;;26.80;64.00;;;;;;5050443;28;20471;-74
2021/06/22 13:22:12;;;;;;;4.37;3.97;;;27.20;64.00;;;;;;5048911;28;20468;-75
2021/06/22 13:24:45;;;;;;;4.40;4.10;;;27.30;63.60;;;;;;5050975;28;20980;-73
2021/06/22 13:27:19;;;;;;;4.37;4.07;;;27.30;64.10;;;;;;5050929;28;20510;-74
2021/06/22 13:30:06;;;;;;;4.50;4.20;;;26.90;63.90;;;;;;5049559;28;20451;-74
2021/06/22 13:32:38;;;;;;;3.73;3.53;;;26.80;64.80;;;;;;5048429;28;20881;-74
2021/06/22 13:35:07;;;;;;;3.83;3.50;;;;;;;;;;5051834;28;21015;-74
2021/06/22 13:37:51;;;;;;;4.07;3.67;;;27.00;63.50;;;;;;5049235;28;20457;-74
2021/06/22 13:40:18;;;;;;;4.40;4.10;;;26.70;63.50;;;;;;5052150;28;20481;-74
2021/06/22 13:43:05;;;;;;;3.90;3.60;;;26.80;63.30;;;;;;5048662;28;20901;-74
2021/06/22 13:45:35;;;;;;;3.47;3.27;;;26.80;63.50;;;;;;5048126;28;20474;-74
2021/06/22 13:48:02;;;;;;;4.23;3.60;;;26.90;62.50;;;;;;5053226;28;20509;-75
2021/06/22 13:50:29;;;;;;;3.60;3.40;;;27.30;61.30;;;;;;5051468;28;20554;-74
2021/06/22 13:53:00;;;;;;;3.00;2.80;;;27.70;62.00;;;;;;5048726;28;20471;-74
2021/06/22 13:55:32;;;;;;;3.63;3.20;;;27.80;60.20;;;;;;5050977;28;20468;-76
2021/06/22 13:58:00;;;;;;;5.03;3.20;;;27.70;60.70;;;;;;5049468;28;20807;-75
2021/06/22 14:00:27;;;;;;;3.90;3.60;;;28.20;61.70;;;;;;5049867;28;20491;-75
2021/06/22 14:02:54;;;;;;;4.13;3.83;;;28.30;61.20;;;;;;5048849;28;20485;-74
2021/06/22 14:05:21;;;;;;;3.80;3.50;;;28.40;61.50;;;;;;5050278;28;20707;-75
2021/06/22 14:07:48;;;;;;;3.50;3.27;;;28.40;61.80;;;;;;5047743;28;20476;-74
2021/06/22 14:10:17;;;;;;;4.80;4.30;;;28.20;62.30;;;;;;5050333;28;20479;-74
2021/06/22 14:12:44;;;;;;;3.87;3.57;;;28.00;62.00;;;;;;5050007;28;20466;-74
2021/06/22 14:15:12;;;;;;;3.70;3.50;;;28.00;62.10;;;;;;5052140;28;20457;-75
2021/06/22 14:17:41;;;;;;;4.00;3.60;;;27.80;62.70;;;;;;5049152;28;21089;-75